createdAt,value
2023-02-19T00:01:10.013Z,5.20
2023-02-19T00:06:03.375Z,3.23
2023-02-19T00:11:02.288Z,3.90
2023-02-19T00:15:54.321Z,3.97
2023-02-19T00:20:46.440Z,4.00
2023-02-19T00:25:38.461Z,5.43
2023-02-19T00:30:30.749Z,4.07
2023-02-19T00:35:23.958Z,4.53
2023-02-19T00:40:15.990Z,5.77
2023-02-19T00:45:09.639Z,3.60
2023-02-19T00:50:01.628Z,2.80
2023-02-19T00:54:53.633Z,4.27
2023-02-19T00:59:45.953Z,6.27
2023-02-19T01:04:38.069Z,2.47
2023-02-19T01:09:30.040Z,2.43
2023-02-19T01:14:22.019Z,3.00
2023-02-19T01:19:14.072Z,5.40
2023-02-19T01:24:06.223Z,4.33
2023-02-19T01:29:01.900Z,2.57
2023-02-19T01:33:56.538Z,3.03
2023-02-19T01:38:49.828Z,2.43
2023-02-19T01:44:02.356Z,2.23
2023-02-19T01:48:55.453Z,2.23
2023-02-19T01:53:53.632Z,2.50
2023-02-19T01:58:47.413Z,1.87
2023-02-19T02:03:41.917Z,1.93
2023-02-19T02:10:11.709Z,1.90
2023-02-19T02:15:04.458Z,2.00
2023-02-19T02:20:23.243Z,3.87
2023-02-19T02:25:38.688Z,1.83
2023-02-19T02:31:02.889Z,1.50
2023-02-19T02:36:01.049Z,2.10
2023-02-19T02:40:55.485Z,1.43
2023-02-19T02:45:47.859Z,2.57
2023-02-19T02:51:07.218Z,1.73
2023-02-19T02:56:06.497Z,1.57
2023-02-19T03:01:25.865Z,0.80
2023-02-19T03:06:21.953Z,0.70
2023-02-19T03:11:32.377Z,0.57
2023-02-19T03:16:50.633Z,1.60
2023-02-19T03:21:45.747Z,0.50
2023-02-19T03:26:39.236Z,0.47
2023-02-19T03:31:33.120Z,0.73
2023-02-19T03:36:37.026Z,0.47
2023-02-19T03:42:10.535Z,2.67
2023-02-19T03:47:14.062Z,0.63
2023-02-19T03:52:20.604Z,0.90
2023-02-19T03:57:34.768Z,0.50
2023-02-19T04:02:34.476Z,0.70
2023-02-19T04:07:28.359Z,0.60
2023-02-19T04:12:22.711Z,1.63
2023-02-19T04:17:23.735Z,1.57
2023-02-19T04:22:17.449Z,0.70
2023-02-19T04:27:10.586Z,0.70
2023-02-19T04:32:02.871Z,0.70
2023-02-19T04:36:54.955Z,0.47
2023-02-19T04:41:46.977Z,1.33
2023-02-19T04:46:43.041Z,2.13
2023-02-19T04:51:35.320Z,0.40
2023-02-19T04:56:27.410Z,0.43
2023-02-19T05:01:19.486Z,1.13
2023-02-19T05:06:13.480Z,0.57
2023-02-19T05:11:07.927Z,0.23
2023-02-19T05:16:06.317Z,0.57
2023-02-19T05:20:59.508Z,0.10
2023-02-19T05:25:51.544Z,0.30
2023-02-19T05:30:48.703Z,0.33
2023-02-19T05:35:42.507Z,0.17
2023-02-19T05:40:35.086Z,0.23
2023-02-19T05:45:27.181Z,9.07
2023-02-19T05:50:20.342Z,17.77
2023-02-19T05:55:13.348Z,7.90
2023-02-19T06:00:05.767Z,36.63
2023-02-19T06:05:06.191Z,8.27
2023-02-19T06:09:58.211Z,1.50
2023-02-19T06:14:50.790Z,9.07
2023-02-19T06:19:42.911Z,1.13
2023-02-19T06:24:36.018Z,0.13
2023-02-19T06:29:28.012Z,0.30
2023-02-19T06:41:22.936Z,0.53
2023-02-19T06:46:15.137Z,0.80
2023-02-19T06:51:07.620Z,0.30
2023-02-19T06:56:05.992Z,1.97
2023-02-19T07:00:59.277Z,0.40
2023-02-19T07:05:51.263Z,0.40
2023-02-19T07:10:44.909Z,0.30
2023-02-19T07:15:37.079Z,1.30
2023-02-19T07:20:29.065Z,1.67
2023-02-19T07:25:21.828Z,0.50
2023-02-19T07:30:13.963Z,0.60
2023-02-19T07:35:06.359Z,1.90
2023-02-19T07:39:58.513Z,0.87
2023-02-19T07:44:50.483Z,1.20
2023-02-19T07:49:42.494Z,0.67
2023-02-19T07:54:34.578Z,0.40
2023-02-19T07:59:26.618Z,0.87
2023-02-19T08:04:18.851Z,0.60
2023-02-19T08:09:11.570Z,0.87
2023-02-19T08:14:03.594Z,0.60
2023-02-19T08:18:55.566Z,0.93
2023-02-19T08:23:50.612Z,2.57
2023-02-19T08:28:43.032Z,1.17
2023-02-19T08:33:36.135Z,0.50
2023-02-19T08:38:28.140Z,1.27
2023-02-19T08:43:20.178Z,1.30
2023-02-19T08:48:12.442Z,1.23
2023-02-19T08:53:06.917Z,1.13
2023-02-19T08:58:01.295Z,1.20
2023-02-19T09:02:58.465Z,1.73
2023-02-19T09:07:50.574Z,3.93
2023-02-19T09:12:42.758Z,1.20
2023-02-19T09:17:34.861Z,0.93
2023-02-19T09:22:26.831Z,2.20
2023-02-19T09:27:20.848Z,0.83
2023-02-19T09:32:13.511Z,1.50
2023-02-19T09:37:09.027Z,0.60
2023-02-19T09:42:15.543Z,0.90
2023-02-19T09:47:29.540Z,1.50
2023-02-19T09:52:42.202Z,1.70
2023-02-19T09:57:36.396Z,1.03
2023-02-19T10:02:30.859Z,1.57
2023-02-19T10:07:35.021Z,1.07
2023-02-19T10:12:31.394Z,1.40
2023-02-19T10:17:26.614Z,0.73
2023-02-19T10:22:20.041Z,0.63
2023-02-19T10:27:14.160Z,0.83
2023-02-19T10:32:24.200Z,0.80
2023-02-19T10:37:19.587Z,1.00
2023-02-19T10:42:16.850Z,0.40
2023-02-19T10:47:15.341Z,1.90
2023-02-19T10:52:43.617Z,1.00
2023-02-19T10:57:37.864Z,2.10
2023-02-19T11:02:33.175Z,1.07
2023-02-19T11:07:25.516Z,1.20
2023-02-19T11:12:29.406Z,0.80
2023-02-19T11:17:30.274Z,1.40
2023-02-19T11:22:32.920Z,1.13
2023-02-19T11:27:25.552Z,4.53
2023-02-19T11:32:20.479Z,1.97
2023-02-19T11:37:22.561Z,0.90
2023-02-19T11:42:34.933Z,1.27
2023-02-19T11:47:48.794Z,1.77
2023-02-19T11:52:53.685Z,2.37
2023-02-19T11:58:00.975Z,4.43
2023-02-19T12:02:54.220Z,2.83
2023-02-19T12:08:04.210Z,1.73
2023-02-19T12:13:14.810Z,3.57
2023-02-19T12:18:27.717Z,1.30
2023-02-19T12:23:31.938Z,1.80
2023-02-19T12:28:29.740Z,4.67
2023-02-19T12:33:39.122Z,2.90
2023-02-19T12:38:36.288Z,2.97
2023-02-19T12:43:30.632Z,2.60
2023-02-19T12:48:46.434Z,3.17
2023-02-19T12:53:49.408Z,1.07
2023-02-19T12:58:52.158Z,1.67
2023-02-19T13:04:39.804Z,6.27
2023-02-19T13:09:39.765Z,1.57
2023-02-19T13:14:43.501Z,0.77
2023-02-19T13:19:38.490Z,1.80
2023-02-19T13:24:35.128Z,3.10
2023-02-19T13:29:50.045Z,1.70
2023-02-19T13:35:18.069Z,3.77
2023-02-19T13:40:30.558Z,1.70
2023-02-19T13:45:26.664Z,3.13
2023-02-19T13:50:24.796Z,2.23
2023-02-19T13:55:51.545Z,3.87
2023-02-19T14:00:53.945Z,3.20
2023-02-19T14:05:57.957Z,1.13
2023-02-19T14:10:57.928Z,0.83
2023-02-19T14:15:51.285Z,1.83
2023-02-19T14:20:45.452Z,4.77
2023-02-19T14:25:42.442Z,1.97
2023-02-19T14:30:40.657Z,2.00
2023-02-19T14:35:42.575Z,5.67
2023-02-19T14:40:43.284Z,3.67
2023-02-19T14:45:45.553Z,3.47
2023-02-19T14:50:37.784Z,1.23
2023-02-19T14:55:37.544Z,2.10
2023-02-19T15:00:33.889Z,2.67
2023-02-19T15:05:28.748Z,1.97
2023-02-19T15:10:21.301Z,2.07
2023-02-19T15:15:29.188Z,1.50
2023-02-19T15:20:25.735Z,2.40
2023-02-19T15:25:25.183Z,2.47
2023-02-19T15:30:31.234Z,4.87
2023-02-19T15:35:25.230Z,3.93
2023-02-19T15:40:19.349Z,1.07
2023-02-19T15:45:30.633Z,1.13
2023-02-19T15:50:25.403Z,1.40
2023-02-19T15:55:35.201Z,2.13
2023-02-19T16:00:56.835Z,0.80
2023-02-19T16:06:05.321Z,2.67
2023-02-19T16:11:02.918Z,1.43
2023-02-19T16:16:01.000Z,3.93
2023-02-19T16:20:53.071Z,2.73
2023-02-19T16:25:46.646Z,4.27
2023-02-19T16:30:40.407Z,2.50
2023-02-19T16:35:41.800Z,1.50
2023-02-19T16:40:48.629Z,3.07
2023-02-19T16:45:49.562Z,5.73
2023-02-19T16:50:42.269Z,2.90
2023-02-19T16:55:37.286Z,3.73
2023-02-19T17:00:31.830Z,6.43
2023-02-19T17:05:26.280Z,4.07
2023-02-19T17:10:23.952Z,4.20
2023-02-19T17:15:16.063Z,2.73
2023-02-19T17:20:17.913Z,4.13
2023-02-19T17:25:10.160Z,4.00
2023-02-19T17:30:02.326Z,3.07
2023-02-19T17:34:54.373Z,4.77
2023-02-19T17:39:46.511Z,5.47
2023-02-19T17:44:38.496Z,6.13
2023-02-19T17:49:30.539Z,4.70
2023-02-19T17:54:22.559Z,6.40
2023-02-19T17:59:15.937Z,9.60
2023-02-19T18:04:08.586Z,25.87
2023-02-19T18:09:00.726Z,15.90
2023-02-19T18:13:53.124Z,10.90
2023-02-19T18:18:45.591Z,8.20
2023-02-19T18:23:38.134Z,6.53
2023-02-19T18:28:30.364Z,7.10
2023-02-19T18:33:22.449Z,7.20
2023-02-19T18:38:14.795Z,7.93
2023-02-19T18:43:06.957Z,6.00
2023-02-19T18:47:59.018Z,9.33
2023-02-19T18:52:51.733Z,11.83
2023-02-19T18:57:44.379Z,14.30
2023-02-19T19:02:48.669Z,12.33
2023-02-19T19:07:41.643Z,12.43
2023-02-19T19:12:34.009Z,6.33
2023-02-19T19:17:27.294Z,7.57
2023-02-19T19:22:22.810Z,4.97
2023-02-19T19:27:14.992Z,5.37
2023-02-19T19:32:08.731Z,8.87
2023-02-19T19:37:00.995Z,8.07
2023-02-19T19:41:56.921Z,8.47
2023-02-19T19:46:49.182Z,7.00
2023-02-19T19:51:41.358Z,7.27
2023-02-19T19:56:40.003Z,14.83
2023-02-19T20:01:32.082Z,17.87
2023-02-19T20:06:30.687Z,17.80
2023-02-19T20:11:23.880Z,5.97
2023-02-19T20:17:07.817Z,6.43
2023-02-19T20:22:08.831Z,11.03
2023-02-19T20:27:02.578Z,7.40
2023-02-19T20:31:55.821Z,10.73
2023-02-19T20:36:49.025Z,10.03
2023-02-19T20:41:48.881Z,14.20
2023-02-19T20:46:48.968Z,12.90
2023-02-19T20:51:53.571Z,11.10
2023-02-19T20:56:50.806Z,11.80
2023-02-19T21:01:43.277Z,20.13
2023-02-19T21:06:35.298Z,16.27
2023-02-19T21:11:27.509Z,15.17
2023-02-19T21:16:19.502Z,12.20
2023-02-19T21:21:18.917Z,21.23
2023-02-19T21:26:18.642Z,28.10
2023-02-19T21:31:10.774Z,7.97
2023-02-19T21:36:11.030Z,9.23
2023-02-19T21:41:07.271Z,7.27
2023-02-19T21:45:59.389Z,10.07
2023-02-19T21:50:51.380Z,7.23
2023-02-19T21:55:57.497Z,12.73
2023-02-19T22:00:50.203Z,20.90
2023-02-19T22:05:42.240Z,19.40
2023-02-19T22:10:34.290Z,11.53
2023-02-19T22:15:27.476Z,16.43
2023-02-19T22:20:19.678Z,8.37
2023-02-19T22:25:19.182Z,12.03
2023-02-19T22:30:15.786Z,14.63
2023-02-19T22:35:08.022Z,8.33
2023-02-19T22:40:00.096Z,89.60
2023-02-19T22:44:52.047Z,64.50
2023-02-19T22:49:45.203Z,16.67
2023-02-19T22:54:37.661Z,15.23
2023-02-19T22:59:29.688Z,17.60
2023-02-19T23:04:23.289Z,30.07
2023-02-19T23:09:22.640Z,60.07
2023-02-19T23:14:18.159Z,28.87
2023-02-19T23:19:11.768Z,22.43
2023-02-19T23:24:04.315Z,11.30
2023-02-19T23:28:56.906Z,9.53
2023-02-19T23:33:49.023Z,7.77
2023-02-19T23:38:44.431Z,8.90
2023-02-19T23:43:36.662Z,6.20
2023-02-19T23:48:28.745Z,4.93
2023-02-19T23:53:21.099Z,8.57
2023-02-19T23:58:13.435Z,10.37
